Aviation Digital Data Service (ADDS)

Output produced by METARs form (1257 UTC 10 July 2020)
found at http://www.aviationweather.gov/metar/data/
 
KVKS 101235Z AUTO 23004KT 3SM BR BKN049 28/28 A3001 RMK A01
KVKS 101215Z AUTO VRB04KT 7SM SCT049 27/27 A3000 RMK A01
KVKS 101155Z AUTO 24004KT 6SM BR CLR 26/26 A3000 RMK A01
KVKS 101135Z AUTO 23005KT 7SM CLR 26/26 A2999 RMK A01
KVKS 101115Z AUTO 23005KT 7SM FEW045 FEW050 26/26 A2999 RMK A01
KVKS 101055Z AUTO 24003KT 8SM BKN046 BKN050 27/27 A2999 RMK A01
KVKS 101035Z AUTO 24004KT 8SM BKN044 OVC050 27/27 A2998 RMK A01
KVKS 101015Z AUTO 23005KT 8SM OVC044 27/27 A2997 RMK A01
KVKS 100955Z AUTO 23005KT 8SM OVC046 27/27 A2997 RMK A01
KVKS 100935Z AUTO 22004KT 8SM OVC046 27/27 A2996 RMK A01
KVKS 100915Z AUTO 23004KT 10SM BKN045 27/27 A2995 RMK A01
KVKS 100855Z AUTO VRB04KT 9SM BKN045 27/27 A2995 RMK A01
KVKS 100835Z AUTO 23003KT 9SM BKN046 27/27 A2995 RMK A01
KVKS 100815Z AUTO 23003KT 9SM SCT047 27/27 A2995 RMK A01
KVKS 100755Z AUTO 22004KT 10SM CLR 27/27 A2994 RMK A01
KVKS 100735Z AUTO 23005KT 10SM FEW046 27/27 A2994 RMK A01
KVKS 100715Z AUTO 22005KT 9SM SCT045 28/28 A2994 RMK A01
KVKS 100655Z AUTO 22004KT 9SM BKN045 28/28 A2994 RMK A01
KVKS 100635Z AUTO 22005KT 9SM BKN044 27/27 A2994 RMK A01
KVKS 100615Z AUTO 21004KT 7SM BKN045 27/27 A2994 RMK A01
KVKS 100555Z AUTO 00000KT 9SM BKN044 26/26 A2993 RMK A01
KVKS 100535Z AUTO 00000KT 8SM OVC041 27/27 A2993 RMK A01
KVKS 100515Z AUTO 00000KT 8SM BKN040 BKN050 27/27 A2993 RMK A01
KVKS 100455Z AUTO 00000KT 9SM BKN042 BKN050 27/27 A2992 RMK A01
KVKS 100435Z AUTO 00000KT 9SM BKN042 BKN049 27/27 A2992 RMK A01
KVKS 100415Z AUTO 00000KT 8SM FEW045 27/27 A2992 RMK A01
KVKS 100355Z AUTO 00000KT 8SM CLR 27/27 A2991 RMK A01
KVKS 100335Z AUTO 00000KT 7SM CLR 27/27 A2991 RMK A01
KVKS 100315Z AUTO 00000KT 8SM CLR 27/27 A2991 RMK A01
KVKS 100255Z AUTO 00000KT 9SM CLR 27/27 A2990 RMK A01
KVKS 100235Z AUTO 00000KT 5SM BR CLR 28/28 A2989 RMK A01
KVKS 100215Z AUTO 00000KT 9SM CLR 28/28 A2990 RMK A01
KVKS 100155Z AUTO 00000KT 9SM CLR 28/28 A2989 RMK A01
KVKS 100135Z AUTO 00000KT 10SM CLR 28/27 A2989 RMK A01
KVKS 100115Z AUTO 00000KT 10SM CLR 29/27 A2989 RMK A01
KVKS 100055Z AUTO 16003KT 10SM CLR 30/27 A2989 RMK A01
KVKS 100035Z AUTO 23003KT 3/4SM HZ VV005 31/26 A2989 RMK A01
KVKS 100015Z AUTO 18005KT 2SM HZ CLR 32/25 A2988 RMK A01
KVKS 092355Z AUTO 23004KT 1 1/4SM HZ CLR 32/25 A2990 RMK A01 VIS M1/4V5
KVKS 092335Z AUTO 21004KT 1/4SM HZ VV002 32/25 A2990 RMK A01 VIS M1/4V5
KVKS 092315Z AUTO 23004KT M1/4SM HZ VV000 33/25 A2991 RMK A01 VIS M1/4V5
KVKS 092255Z AUTO 25005KT M1/4SM HZ VV000 33/25 A2990 RMK A01
KVKS 092235Z AUTO 29006KT 3/4SM HZ VV005 33/25 A2991 RMK A01 VIS M1/4V5
KVKS 092215Z AUTO VRB04KT 3/4SM HZ VV005 33/25 A2992 RMK A01 VIS 2V5
KVKS 092155Z AUTO 26007KT 1/2SM HZ BKN042 33/25 A2991 RMK A01 VIS M1/4V5
KVKS 092135Z AUTO 23006KT 1 3/4SM HZ SCT042 33/24 A2992 RMK A01 VIS 1/4V5
KVKS 092115Z AUTO 25004G11KT 5SM HZ CLR 33/24 A2992 RMK A01
KVKS 092055Z AUTO 24009KT 3SM HZ CLR 33/25 A2992 RMK A01
KVKS 092035Z AUTO VRB06KT 1/2SM HZ BKN041 BKN047 33/25 A2992 RMK A01
KVKS 092015Z AUTO 22007KT 2 1/2SM HZ CLR 32/25 A2993 RMK A01
KVKS 091955Z AUTO 24007KT 10SM CLR 32/25 A2993 RMK A01
KVKS 091935Z AUTO 24009KT 1 1/2SM HZ SCT035 32/24 A2993 RMK A01 VIS M1/4V5
KVKS 091915Z AUTO 26007KT 3SM HZ FEW036 32/25 A2994 RMK A01
KVKS 091855Z AUTO 22009KT 1SM HZ SCT036 32/25 A2994 RMK A01 VIS M1/4V5
KVKS 091835Z AUTO VRB06KT M1/4SM HZ BKN034 32/25 A2995 RMK A01
KVKS 091815Z AUTO VRB05KT M1/4SM HZ BKN028 32/26 A2995 RMK A01
KVKS 091755Z AUTO VRB06G11KT 5SM HZ SCT027 SCT033 31/26 A2995 RMK A01
KVKS 091735Z AUTO 23007KT 8SM FEW026 31/26 A2995 RMK A01
KVKS 091715Z AUTO 24007KT 210V270 5SM HZ CLR 30/26 A2995 RMK A01
KVKS 091655Z AUTO 22007KT 200V270 1 1/2SM HZ SCT022 30/26 A2995 RMK A01
KVKS 091635Z AUTO VRB05G13KT 3SM HZ FEW022 30/26 A2995 RMK A01
KVKS 091615Z AUTO 23007KT 7SM FEW020 30/26 A2995 RMK A01
KVKS 091555Z AUTO VRB05G10KT 1/4SM HZ OVC020 30/26 A2996 RMK A01 VIS M1/4V5
KVKS 091535Z AUTO VRB04G10KT 7SM BKN018 BKN023 29/26 A2996 RMK A01
KVKS 091515Z AUTO 20007G12KT 1 3/4SM HZ BKN017 29/26 A2995 RMK A01 VIS 5V5
KVKS 091455Z AUTO 25007G14KT 8SM SCT016 28/26 A2995 RMK A01
KVKS 091435Z AUTO 23007KT 7SM SCT014 BKN020 28/27 A2995 RMK A01
KVKS 091415Z AUTO 25008KT 6SM BR BKN014 BKN018 28/27 A2995 RMK A01
KVKS 091355Z AUTO 26007G12KT 6SM BR BKN014 OVC019 28/27 A2995 RMK A01
KVKS 091335Z AUTO 23007KT 2 1/2SM BR BKN014 27/27 A2995 RMK A01
KVKS 091315Z AUTO 23007KT 5SM BR BKN013 27/27 A2995 RMK A01
KVKS 091255Z AUTO 22006KT 5SM BR BKN013 BKN018 27/27 A2995 RMK A01
KVKS 091235Z AUTO 24004KT 5SM BR BKN011 26/26 A2995 RMK A01
KVKS 091215Z AUTO 23005G10KT 5SM BR BKN009 BKN013 26/26 A2994 RMK A01
KVKS 091155Z AUTO 22005KT 5SM BR BKN009 OVC013 26/26 A2993 RMK A01
KVKS 091135Z AUTO 22006KT 5SM BR BKN010 OVC013 26/26 A2993 RMK A01
KVKS 091115Z AUTO 24006G13KT 5SM BR OVC011 26/26 A2993 RMK A01
KVKS 091055Z AUTO VRB05KT 6SM BR BKN010 BKN013 26/26 A2992 RMK A01
KVKS 091035Z AUTO 22004KT 6SM BR BKN011 26/26 A2992 RMK A01
KVKS 091015Z AUTO 22003KT 5SM BR BKN013 BKN040 26/26 A2991 RMK A01
KVKS 090955Z AUTO 22005KT 5SM BR SCT013 BKN040 BKN048 26/26 A2991 RMK A01
KVKS 090935Z AUTO 22005KT 6SM BR SCT042 BKN050 26/26 A2991 RMK A01
KVKS 090915Z AUTO 22005KT 6SM BR BKN040 OVC050 26/26 A2990 RMK A01
KVKS 090855Z AUTO 21004KT 7SM FEW038 SCT045 BKN055 25/25 A2990 RMK A01
KVKS 090835Z AUTO 19005KT 7SM FEW032 FEW040 BKN050 25/25 A2990 RMK A01
KVKS 090815Z AUTO 19005KT 7SM FEW027 SCT035 BKN050 25/25 A2990 RMK A01
KVKS 090755Z AUTO 18005KT 7SM FEW032 SCT038 OVC048 25/25 A2990 RMK A01
KVKS 090735Z AUTO 17004KT 8SM FEW034 OVC046 25/25 A2990 RMK A01
KVKS 090715Z AUTO 00000KT 8SM FEW032 FEW037 BKN044 25/25 A2990 RMK A01
KVKS 090655Z AUTO 17004KT 7SM SCT037 BKN047 BKN055 25/25 A2990 RMK A01
KVKS 090635Z AUTO 17003KT 7SM OVC036 25/25 A2991 RMK A01
KVKS 090615Z AUTO VRB04KT 7SM FEW003 SCT034 OVC047 25/25 A2991 RMK A01
KVKS 090555Z AUTO 00000KT 5SM BR BKN003 OVC046 25/25 A2992 RMK A01
KVKS 090535Z AUTO 00000KT 1 3/4SM BR OVC002 25/25 A2992 RMK A01
KVKS 090515Z AUTO 00000KT 1/2SM BR OVC002 25/25 A2992 RMK A01
KVKS 090455Z AUTO 00000KT 1SM BR OVC002 25/25 A2992 RMK A01
KVKS 090435Z AUTO 13004KT 5SM BR SCT002 BKN043 OVC050 25/25 A2992 RMK A01
KVKS 090415Z AUTO 00000KT 9SM BKN043 OVC050 25/25 A2992 RMK A01
KVKS 090355Z AUTO 00000KT 1/4SM FG BKN041 OVC049 25/25 A2992 RMK A01
KVKS 090335Z AUTO 14003KT 1/4SM FG SCT038 BKN046 BKN055 25/25 A2992 RMK A01
KVKS 090315Z AUTO 00000KT 2SM BR SCT038 BKN045 OVC050 25/25 A2992 RMK A01
KVKS 090255Z AUTO 00000KT 5SM BR FEW034 BKN039 OVC050 25/25 A2991 RMK A01
KVKS 090235Z AUTO 00000KT 10SM SCT036 BKN041 OVC048 25/25 A2991 RMK A01
KVKS 090215Z AUTO 00000KT 5SM BR SCT036 BKN042 BKN047 25/25 A2991 RMK A01
KVKS 090155Z AUTO 00000KT 10SM FEW033 SCT040 SCT048 26/26 A2990 RMK A01
KVKS 090135Z AUTO 16003KT 9SM SCT034 26/26 A2989 RMK A01
KVKS 090115Z AUTO 00000KT 9SM FEW040 26/26 A2989 RMK A01
KVKS 090055Z AUTO 19005KT 10SM CLR 27/27 A2990 RMK A01
KVKS 090035Z AUTO 00000KT M1/4SM FG VV000 28/26 A2989 RMK A01
KVKS 090015Z AUTO 00000KT 1/4SM FG VV002 28/27 A2989 RMK A01 VIS M1/4V5
KVKS 082355Z AUTO 16006KT 1/4SM FG VV002 28/27 A2989 RMK A01
KVKS 082335Z AUTO 16005KT 4SM BR CLR 28/27 A2990 RMK A01
KVKS 082315Z AUTO 15004KT 1 1/2SM BR CLR 28/27 A2990 RMK A01 VIS M1/4V5
KVKS 082255Z AUTO 17004KT 3/4SM BR VV005 28/27 A2991 RMK A01
KVKS 082235Z AUTO 00000KT 1/2SM FG VV005 27/27 A2991 RMK A01 VIS M1/4V5
KVKS 082215Z AUTO 00000KT 2 1/2SM BR CLR 28/27 A2992 RMK A01
KVKS 082155Z AUTO 00000KT M1/4SM FG VV000 27/27 A2993 RMK A01
KVKS 082135Z AUTO 17005G11KT 1/4SM FG VV002 27/27 A2992 RMK A01
KVKS 082115Z AUTO 15005KT 1/4SM FG VV002 26/26 A2992 RMK A01
KVKS 082055Z AUTO 15004KT 4SM BR CLR 25/25 A2992 RMK A01
KVKS 082035Z AUTO 00000KT 1/4SM FG VV002 25/25 A2993 RMK A01
KVKS 082015Z AUTO 16003KT M1/4SM FG VV000 24/24 A2994 RMK A01
KVKS 081955Z AUTO 00000KT M1/4SM FG VV000 24/24 A2993 RMK A01
KVKS 081935Z AUTO 00000KT M1/4SM FG VV000 24/24 A2995 RMK A01
KVKS 081915Z AUTO 00000KT M1/4SM FG VV000 24/24 A2996 RMK A01
KVKS 081855Z AUTO 17005G15KT M1/4SM FG BKN002 BKN017 OVC035 24/24 A2996 RMK A01
KVKS 081835Z AUTO 00000KT M1/4SM FG BKN002 OVC021 24/24 A2999 RMK A01
KVKS 081815Z AUTO 18010G20KT M1/4SM FG OVC002 24/24 A2998 RMK A01
KVKS 081755Z AUTO 12005KT 1/4SM FG OVC015 26/26 A2996 RMK A01
KVKS 081735Z AUTO 09006KT 1/2SM FG OVC013 25/25 A2996 RMK A01 VIS M1/4V5
KVKS 081715Z AUTO 08006KT 6SM BR OVC013 25/25 A2997 RMK A01
KVKS 081655Z AUTO 03005KT 8SM FEW002 BKN013 BKN020 24/24 A2997 RMK A01
KVKS 081635Z AUTO 31010G18KT 1/4SM FG BKN002 BKN011 OVC030 24/24 A3000 RMK A01
KVKS 081615Z AUTO 08003KT 3SM BR SCT019 BKN023 OVC030 25/25 A2999 RMK A01
KVKS 081555Z AUTO VRB04KT 3/4SM BR BKN005 BKN013 OVC018 24/24 A2997 RMK A01
KVKS 081535Z AUTO 31008G15KT 270V340 3SM BR FEW008 BKN013 OVC017 27/27 A2998 RMK A01
KVKS 081515Z AUTO 18003KT 5SM BR BKN013 BKN017 27/27 A2999 RMK A01
KVKS 081455Z AUTO 21003KT 5SM BR SCT013 SCT018 26/26 A2999 RMK A01
KVKS 081435Z AUTO 17004KT 3SM BR FEW010 FEW014 26/26 A2998 RMK A01
KVKS 081415Z AUTO 19003KT 3SM BR BKN009 BKN013 26/26 A2998 RMK A01
KVKS 081355Z AUTO 20004KT 6SM BR BKN009 OVC013 26/26 A2998 RMK A01
KVKS 081335Z AUTO 18006KT 6SM BR BKN008 BKN013 26/26 A2998 RMK A01
KVKS 081315Z AUTO 18006KT 5SM BR BKN006 BKN013 26/26 A2997 RMK A01
KVKS 081255Z AUTO 18006KT 5SM BR OVC006 25/25 A2996 RMK A01
KVKS 081235Z AUTO 18005KT 5SM BR OVC006 25/25 A2996 RMK A01
KVKS 081215Z AUTO 18005KT 5SM BR OVC006 25/25 A2996 RMK A01
KVKS 081155Z AUTO 17005KT 5SM BR BKN006 OVC009 25/25 A2997 RMK A01
KVKS 081135Z AUTO 18003KT 5SM BR SCT008 SCT100 24/24 A2997 RMK A01
KVKS 081115Z AUTO 17004KT 6SM BR FEW047 SCT100 24/24 A2996 RMK A01
KVKS 081055Z AUTO 17003KT 8SM FEW039 FEW046 FEW110 24/24 A2996 RMK A01
KVKS 081035Z AUTO 00000KT 9SM FEW030 FEW037 24/24 A2996 RMK A01
KVKS 081015Z AUTO 17004KT 9SM FEW033 FEW041 SCT120 24/24 A2996 RMK A01
KVKS 080955Z AUTO 18004KT 9SM FEW095 SCT120 24/24 A2996 RMK A01
KVKS 080935Z AUTO 18006KT 10SM FEW031 FEW110 24/24 A2996 RMK A01
KVKS 080915Z AUTO 00000KT 10SM SCT030 SCT040 SCT110 24/24 A2996 RMK A01
KVKS 080855Z AUTO 00000KT 10SM SCT029 BKN039 BKN075 24/24 A2995 RMK A01
KVKS 080835Z AUTO 17005KT 10SM BKN024 BKN030 OVC120 24/24 A2995 RMK A01
KVKS 080815Z AUTO 00000KT 10SM OVC025 24/24 A2995 RMK A01
KVKS 080755Z AUTO 00000KT 10SM OVC025 24/24 A2996 RMK A01
KVKS 080735Z AUTO 00000KT 1/4SM FG OVC027 24/24 A2996 RMK A01
KVKS 080715Z AUTO 00000KT 10SM SCT027 OVC033 24/24 A2996 RMK A01
KVKS 080655Z AUTO 00000KT 6SM BR BKN034 OVC041 24/24 A2997 RMK A01
KVKS 080635Z AUTO 00000KT 10SM SCT031 BKN036 OVC060 24/24 A2997 RMK A01
KVKS 080615Z AUTO 00000KT 10SM OVC033 24/24 A2997 RMK A01
KVKS 080555Z AUTO 00000KT 10SM OVC032 24/24 A2998 RMK A01
KVKS 080535Z AUTO 00000KT 10SM BKN028 OVC033 24/24 A2998 RMK A01
KVKS 080515Z AUTO 00000KT 10SM OVC029 24/24 A2998 RMK A01
KVKS 080455Z AUTO 00000KT 10SM FEW027 BKN034 BKN042 24/24 A2998 RMK A01
KVKS 080435Z AUTO 00000KT 3/4SM BR SCT041 24/24 A2998 RMK A01
KVKS 080415Z AUTO 00000KT 10SM CLR 24/24 A2998 RMK A01
KVKS 080355Z AUTO 00000KT 10SM CLR 24/24 A2997 RMK A01
KVKS 080335Z AUTO 00000KT 1/4SM FG VV002 24/24 A2997 RMK A01
KVKS 080315Z AUTO 00000KT 10SM CLR 24/24 A2997 RMK A01
KVKS 080255Z AUTO 00000KT 10SM CLR 24/24 A2997 RMK A01
KVKS 080235Z AUTO 00000KT 1/2SM BR VV005 24/24 A2996 RMK A01
KVKS 080215Z AUTO 00000KT 1/2SM BR VV005 24/24 A2996 RMK A01
KVKS 080155Z AUTO 00000KT 1/4SM FG VV002 24/24 A2996 RMK A01
KVKS 080135Z AUTO 00000KT 1/2SM FG VV005 24/24 A2996 RMK A01
KVKS 080115Z AUTO 00000KT 1/4SM FG VV002 24/24 A2995 RMK A01
KVKS 080055Z AUTO 00000KT 3/4SM BR VV005 24/24 A2996 RMK A01 VIS M1/4V5
KVKS 080035Z AUTO 00000KT 9SM CLR 24/24 A2997 RMK A01
KVKS 080015Z AUTO 26005KT 4SM BR CLR 25/25 A2997 RMK A01
KVKS 072355Z AUTO 27005KT 3SM BR FEW024 FEW029 SCT039 25/25 A2996 RMK A01
KVKS 072335Z AUTO 34006KT 1 3/4SM BR BKN024 BKN029 OVC042 25/25 A2996 RMK A01
KVKS 072315Z AUTO 27004KT 9SM SCT034 SCT042 29/25 A2996 RMK A01
KVKS 072255Z AUTO 22004KT 10SM FEW031 29/25 A2996 RMK A01
KVKS 072235Z AUTO 23005KT 1/4SM HZ BKN031 30/25 A2996 RMK A01 VIS M1/4V5
KVKS 072215Z AUTO 22005KT 6SM HZ FEW031 30/24 A2996 RMK A01
KVKS 072155Z AUTO 26004KT 3SM HZ CLR 31/24 A2997 RMK A01
KVKS 072135Z AUTO 21006KT 1/4SM HZ VV002 31/24 A2997 RMK A01 VIS M1/4V5
KVKS 072115Z AUTO 23007G12KT 1/2SM HZ SCT029 31/24 A2997 RMK A01 VIS M1/4V5
KVKS 072055Z AUTO 24005KT 1SM HZ CLR 30/25 A2998 RMK A01 VIS M1/4V5
KVKS 072035Z AUTO VRB05KT 1 3/4SM HZ CLR 30/24 A2998 RMK A01
KVKS 072015Z AUTO 22009KT 1/2SM HZ VV005 30/24 A2998 RMK A01 VIS M1/4V5
KVKS 071955Z AUTO 22006KT 3/4SM HZ VV005 30/24 A2998 RMK A01 VIS M1/4V5
KVKS 071935Z AUTO 26005KT 2 1/2SM HZ CLR 30/23 A2998 RMK A01 VIS M1/4V5
KVKS 071915Z AUTO 31007KT 3/4SM HZ VV005 30/23 A2998 RMK A01 VIS M1/4V5
KVKS 071855Z AUTO VRB03KT M1/4SM HZ VV000 29/24 A2999 RMK A01
KVKS 071835Z AUTO VRB04KT 1 1/2SM HZ CLR 29/25 A3000 RMK A01
KVKS 071815Z AUTO 26004KT 10SM CLR 29/25 A3001 RMK A01
KVKS 071755Z AUTO VRB04KT 1 1/4SM HZ CLR 29/24 A3002 RMK A01
KVKS 071735Z AUTO 30005KT 1/2SM HZ BKN021 28/25 A3002 RMK A01 VIS M1/4V5
KVKS 071715Z AUTO 27006KT 1/4SM HZ BKN019 28/25 A3003 RMK A01
KVKS 071655Z AUTO 29004KT 4SM HZ BKN018 28/26 A3002 RMK A01
KVKS 071635Z AUTO 31006KT 1/2SM HZ OVC017 28/26 A3002 RMK A01
KVKS 071615Z AUTO 31008KT 1/2SM FG BKN014 28/26 A3002 RMK A01
KVKS 071555Z AUTO VRB04KT 1 3/4SM BR BKN013 27/27 A3002 RMK A01 VIS M1/4V5
KVKS 071535Z AUTO 26005KT 10SM BKN013 BKN018 26/26 A3003 RMK A01
KVKS 071515Z AUTO 26008KT 10SM SCT008 BKN016 26/26 A3003 RMK A01
KVKS 071455Z AUTO 28007KT 250V320 10SM BKN009 OVC014 26/26 A3003 RMK A01
KVKS 071435Z AUTO 29005KT 10SM SCT009 BKN013 OVC035 27/27 A3002 RMK A01
KVKS 071415Z AUTO 28003KT M1/4SM FG OVC008 27/27 A3002 RMK A01
KVKS 071355Z AUTO 26004KT M1/4SM FG OVC008 26/26 A3001 RMK A01
KVKS 071335Z AUTO 26004KT M1/4SM FG OVC007 26/26 A3001 RMK A01
KVKS 071315Z AUTO 00000KT M1/4SM FG OVC009 25/25 A3000 RMK A01